createdAt,value
2019-02-25T00:02:30.798Z,4.27
2019-02-25T00:05:00.159Z,4.27
2019-02-25T00:07:29.527Z,4.00
2019-02-25T00:09:58.783Z,3.97
2019-02-25T00:12:28.009Z,4.17
2019-02-25T00:14:57.195Z,4.10
2019-02-25T00:17:26.420Z,3.90
2019-02-25T00:19:55.738Z,4.13
2019-02-25T00:22:24.958Z,4.43
2019-02-25T00:24:54.214Z,4.10
2019-02-25T00:27:23.371Z,4.43
2019-02-25T00:29:52.632Z,5.30
2019-02-25T00:32:21.779Z,4.97
2019-02-25T00:34:51.024Z,4.27
2019-02-25T00:37:20.251Z,4.70
2019-02-25T00:39:49.512Z,4.03
2019-02-25T00:42:18.661Z,3.50
2019-02-25T00:44:47.872Z,3.50
2019-02-25T00:47:17.088Z,4.97
2019-02-25T00:49:46.370Z,3.93
2019-02-25T00:52:15.670Z,5.80
2019-02-25T00:54:44.932Z,6.60
2019-02-25T00:57:14.090Z,8.87
2019-02-25T00:59:43.375Z,4.23
2019-02-25T01:02:12.627Z,4.63
2019-02-25T01:04:41.950Z,4.20
2019-02-25T01:07:11.200Z,4.50
2019-02-25T01:09:40.361Z,4.13
2019-02-25T01:12:10.211Z,3.80
2019-02-25T01:14:39.454Z,3.90
2019-02-25T01:17:08.653Z,3.30
2019-02-25T01:19:38.041Z,3.63
2019-02-25T01:22:07.294Z,3.40
2019-02-25T01:24:36.594Z,3.60
2019-02-25T01:27:05.776Z,3.70
2019-02-25T01:29:35.007Z,4.27
2019-02-25T01:32:04.267Z,3.57
2019-02-25T01:34:33.563Z,3.40
2019-02-25T01:37:02.742Z,3.40
2019-02-25T01:39:31.923Z,3.97
2019-02-25T01:42:01.184Z,3.70
2019-02-25T01:44:30.327Z,3.53
2019-02-25T01:46:59.499Z,3.53
2019-02-25T01:49:28.720Z,3.30
2019-02-25T01:51:57.995Z,3.50
2019-02-25T01:54:27.216Z,3.87
2019-02-25T01:56:56.468Z,3.60
2019-02-25T01:59:25.639Z,3.63
2019-02-25T02:01:54.919Z,3.77
2019-02-25T02:04:24.150Z,3.57
2019-02-25T02:06:53.404Z,3.80
2019-02-25T02:09:22.564Z,3.97
2019-02-25T02:11:51.816Z,3.97
2019-02-25T02:14:21.053Z,4.07
2019-02-25T02:16:50.383Z,3.70
2019-02-25T02:19:19.611Z,3.97
2019-02-25T02:21:48.770Z,3.97
2019-02-25T02:24:18.036Z,3.70
2019-02-25T02:26:47.186Z,4.03
2019-02-25T02:29:16.545Z,4.00
2019-02-25T02:31:45.764Z,3.87
2019-02-25T02:34:15.035Z,4.10
2019-02-25T02:36:44.252Z,4.17
2019-02-25T02:39:13.440Z,4.00
2019-02-25T02:42:17.003Z,4.20
2019-02-25T02:44:48.520Z,3.90
2019-02-25T02:47:51.053Z,4.03
2019-02-25T02:50:24.852Z,5.13
2019-02-25T02:52:54.149Z,3.70
2019-02-25T02:55:23.330Z,4.20
2019-02-25T02:57:52.483Z,4.00
2019-02-25T03:00:21.776Z,5.30
2019-02-25T03:02:51.096Z,5.30
2019-02-25T03:05:20.376Z,4.30
2019-02-25T03:07:49.596Z,4.23
2019-02-25T03:10:19.558Z,3.90
2019-02-25T03:12:48.857Z,4.17
2019-02-25T03:15:19.899Z,7.83
2019-02-25T03:17:49.127Z,4.70
2019-02-25T03:20:18.329Z,4.23
2019-02-25T03:22:47.624Z,4.17
2019-02-25T03:25:17.628Z,3.67
2019-02-25T03:27:46.936Z,4.50
2019-02-25T03:30:18.351Z,4.10
2019-02-25T03:32:47.654Z,3.80
2019-02-25T03:35:16.836Z,4.00
2019-02-25T03:37:46.204Z,3.87
2019-02-25T03:40:17.072Z,4.30
2019-02-25T03:42:46.403Z,3.87
2019-02-25T03:45:16.991Z,3.77
2019-02-25T03:47:46.284Z,3.90
2019-02-25T03:50:16.061Z,3.70
2019-02-25T03:52:45.368Z,4.10
2019-02-25T03:55:16.248Z,3.77
2019-02-25T03:57:45.513Z,3.90
2019-02-25T04:00:19.971Z,3.87
2019-02-25T04:02:49.147Z,3.87
2019-02-25T04:05:18.407Z,3.70
2019-02-25T04:07:47.784Z,4.37
2019-02-25T04:10:17.056Z,4.60
2019-02-25T04:12:46.461Z,4.00
2019-02-25T04:15:18.893Z,4.17
2019-02-25T04:17:48.240Z,4.13
2019-02-25T04:20:17.577Z,3.73
2019-02-25T04:22:46.854Z,4.23
2019-02-25T04:25:16.176Z,3.80
2019-02-25T04:27:45.356Z,3.90
2019-02-25T04:30:15.425Z,3.77
2019-02-25T04:32:44.844Z,4.07
2019-02-25T04:35:14.273Z,4.00
2019-02-25T04:37:43.543Z,3.93
2019-02-25T04:40:13.995Z,5.20
2019-02-25T04:42:43.292Z,4.70
2019-02-25T04:45:15.003Z,4.43
2019-02-25T04:47:44.264Z,4.10
2019-02-25T04:50:14.013Z,3.90
2019-02-25T04:52:43.267Z,4.30
2019-02-25T04:55:12.532Z,4.37
2019-02-25T04:57:41.711Z,4.10
2019-02-25T05:00:13.683Z,3.87
2019-02-25T05:02:42.889Z,4.40
2019-02-25T05:05:12.249Z,4.30
2019-02-25T05:07:41.524Z,3.97
2019-02-25T05:10:12.230Z,4.60
2019-02-25T05:12:44.312Z,4.30
2019-02-25T05:15:15.597Z,4.63
2019-02-25T05:17:44.882Z,4.37
2019-02-25T05:20:14.289Z,4.77
2019-02-25T05:22:43.548Z,5.10
2019-02-25T05:25:13.084Z,4.27
2019-02-25T05:27:42.271Z,4.40
2019-02-25T05:30:11.752Z,4.23
2019-02-25T05:32:41.056Z,14.03
2019-02-25T05:35:10.929Z,6.40
2019-02-25T05:37:40.170Z,4.90
2019-02-25T05:40:12.332Z,4.97
2019-02-25T05:42:41.580Z,4.57
2019-02-25T05:45:11.672Z,5.10
2019-02-25T05:47:40.828Z,4.60
2019-02-25T05:50:12.385Z,4.90
2019-02-25T05:52:41.569Z,4.70
2019-02-25T05:55:12.312Z,5.10
2019-02-25T05:57:41.538Z,5.17
2019-02-25T06:00:14.980Z,5.17
2019-02-25T06:02:44.239Z,4.90
2019-02-25T06:05:13.412Z,4.90
2019-02-25T06:07:42.640Z,4.77
2019-02-25T06:10:12.234Z,5.50
2019-02-25T06:12:41.382Z,5.00
2019-02-25T06:15:11.414Z,5.40
2019-02-25T06:17:40.633Z,5.10
2019-02-25T06:20:10.725Z,5.07
2019-02-25T06:22:39.959Z,5.30
2019-02-25T06:25:09.563Z,6.73
2019-02-25T06:27:38.860Z,5.17
2019-02-25T06:30:10.407Z,5.30
2019-02-25T06:32:39.555Z,9.37
2019-02-25T06:35:09.098Z,5.10
2019-02-25T06:37:38.323Z,5.40
2019-02-25T06:40:08.724Z,4.80
2019-02-25T06:42:37.988Z,5.47
2019-02-25T06:45:08.727Z,5.03
2019-02-25T06:47:38.027Z,4.83
2019-02-25T06:50:07.874Z,4.73
2019-02-25T06:52:37.170Z,5.10
2019-02-25T06:55:07.199Z,4.70
2019-02-25T06:57:36.550Z,5.20
2019-02-25T07:00:08.087Z,5.83
2019-02-25T07:02:37.420Z,5.13
2019-02-25T07:05:31.369Z,5.90
2019-02-25T07:08:15.735Z,5.43
2019-02-25T07:11:11.760Z,5.10
2019-02-25T07:14:06.003Z,4.73
2019-02-25T07:16:54.284Z,5.80
2019-02-25T07:19:43.021Z,8.10
2019-02-25T07:22:34.142Z,9.07
2019-02-25T07:25:31.432Z,8.30
2019-02-25T07:28:22.330Z,6.77
2019-02-25T07:31:10.616Z,6.00
2019-02-25T07:33:55.709Z,7.87
2019-02-25T07:36:46.700Z,7.57
2019-02-25T07:39:29.945Z,6.30
2019-02-25T07:42:30.551Z,5.20
2019-02-25T07:45:21.506Z,5.63
2019-02-25T07:47:59.094Z,6.57
2019-02-25T07:50:35.028Z,5.60
2019-02-25T07:53:15.512Z,5.97
2019-02-25T07:56:12.648Z,6.17
2019-02-25T07:58:48.818Z,5.70
2019-02-25T08:01:26.079Z,5.43
2019-02-25T08:04:26.622Z,4.63
2019-02-25T08:07:09.251Z,5.20
2019-02-25T08:09:50.317Z,6.23
2019-02-25T08:12:32.522Z,5.63
2019-02-25T08:15:29.792Z,7.20
2019-02-25T08:18:18.031Z,7.00
2019-02-25T08:21:04.499Z,7.17
2019-02-25T08:23:55.478Z,6.80
2019-02-25T08:26:43.665Z,6.03
2019-02-25T08:29:30.698Z,5.80
2019-02-25T08:32:22.905Z,5.73
2019-02-25T08:35:15.393Z,5.37
2019-02-25T08:38:16.839Z,5.13
2019-02-25T08:41:27.744Z,4.80
2019-02-25T08:44:22.069Z,6.30
2019-02-25T08:46:56.367Z,6.23
2019-02-25T08:49:32.044Z,5.97
2019-02-25T08:52:01.324Z,5.67
2019-02-25T08:54:30.609Z,6.17
2019-02-25T08:56:59.764Z,6.10
2019-02-25T08:59:29.172Z,6.27
2019-02-25T09:01:58.492Z,5.87
2019-02-25T09:04:27.767Z,5.43
2019-02-25T09:06:56.911Z,6.63
2019-02-25T09:09:26.168Z,5.23
2019-02-25T09:11:55.395Z,6.00
2019-02-25T09:14:24.657Z,5.73
2019-02-25T09:16:53.795Z,5.63
2019-02-25T09:19:23.079Z,6.47
2019-02-25T09:21:52.294Z,5.63
2019-02-25T09:24:21.478Z,6.67
2019-02-25T09:26:50.645Z,6.47
2019-02-25T09:29:19.811Z,7.37
2019-02-25T09:31:49.064Z,5.60
2019-02-25T09:34:18.296Z,6.00
2019-02-25T09:36:47.555Z,6.00
2019-02-25T09:39:16.940Z,6.93
2019-02-25T09:41:46.262Z,6.00
2019-02-25T09:44:15.511Z,6.90
2019-02-25T09:46:44.756Z,5.90
2019-02-25T09:49:13.984Z,5.53
2019-02-25T09:51:43.175Z,6.03
2019-02-25T09:54:12.404Z,6.37
2019-02-25T09:56:41.596Z,6.50
2019-02-25T09:59:10.780Z,7.30
2019-02-25T10:01:40.062Z,7.57
2019-02-25T10:04:09.467Z,6.90
2019-02-25T10:06:38.642Z,7.07
2019-02-25T10:09:08.495Z,6.63
2019-02-25T10:11:37.770Z,7.10
2019-02-25T10:14:07.089Z,6.80
2019-02-25T10:16:36.383Z,6.80
2019-02-25T10:19:05.687Z,6.67
2019-02-25T10:21:34.875Z,6.03
2019-02-25T10:24:04.040Z,6.60
2019-02-25T10:26:33.224Z,6.33
2019-02-25T10:29:02.553Z,6.70
2019-02-25T10:31:31.799Z,7.40
2019-02-25T10:34:01.027Z,6.40
2019-02-25T10:36:30.192Z,6.50
2019-02-25T10:38:59.376Z,6.97
2019-02-25T10:41:28.538Z,5.87
2019-02-25T10:43:58.586Z,6.50
2019-02-25T10:46:28.672Z,5.90
2019-02-25T10:48:59.212Z,6.93
2019-02-25T10:51:28.812Z,6.63
2019-02-25T10:53:58.075Z,6.93
2019-02-25T10:56:49.375Z,7.00
2019-02-25T10:59:18.856Z,6.77
2019-02-25T11:01:48.035Z,7.03
2019-02-25T11:04:17.927Z,6.80
2019-02-25T11:06:48.179Z,6.80
2019-02-25T11:09:50.349Z,5.87
2019-02-25T11:12:21.481Z,5.20
2019-02-25T11:14:50.875Z,5.40
2019-02-25T11:17:22.026Z,5.47
2019-02-25T11:19:51.099Z,5.10
2019-02-25T11:22:20.335Z,5.30
2019-02-25T11:24:51.354Z,5.13
2019-02-25T11:27:20.487Z,6.30
2019-02-25T11:29:49.703Z,6.00
2019-02-25T11:32:19.857Z,5.80
2019-02-25T11:34:50.008Z,5.80
2019-02-25T11:37:21.746Z,5.43
2019-02-25T11:39:50.262Z,5.73
2019-02-25T11:42:20.655Z,5.50
2019-02-25T11:44:51.801Z,4.73
2019-02-25T11:47:20.915Z,5.40
2019-02-25T11:49:50.844Z,4.93
2019-02-25T11:52:20.208Z,4.87
2019-02-25T11:54:49.391Z,4.63
2019-02-25T11:57:18.614Z,4.60
2019-02-25T11:59:47.880Z,4.87
2019-02-25T12:02:25.194Z,5.03
2019-02-25T12:04:48.561Z,4.40
2019-02-25T12:07:18.020Z,4.63
2019-02-25T12:09:47.328Z,4.83
2019-02-25T12:12:16.484Z,4.40
2019-02-25T12:14:45.672Z,3.97
2019-02-25T12:17:14.911Z,3.83
2019-02-25T12:19:44.558Z,4.37
2019-02-25T12:22:13.792Z,4.27
2019-02-25T12:24:43.059Z,4.40
2019-02-25T12:27:12.227Z,4.30
2019-02-25T12:29:41.539Z,4.43
2019-02-25T12:32:10.827Z,4.13
2019-02-25T12:34:41.063Z,4.17
2019-02-25T12:37:10.319Z,3.93
2019-02-25T12:39:39.563Z,4.07
2019-02-25T12:42:08.892Z,3.80
2019-02-25T12:44:38.135Z,3.53
2019-02-25T12:47:07.396Z,3.83
2019-02-25T12:49:36.636Z,3.67
2019-02-25T12:52:05.851Z,3.90
2019-02-25T12:54:35.038Z,3.80
2019-02-25T12:57:04.270Z,3.90
2019-02-25T12:59:33.570Z,3.90
2019-02-25T13:02:02.822Z,3.40
2019-02-25T13:04:32.057Z,3.63
2019-02-25T13:07:01.317Z,3.60
2019-02-25T13:09:30.549Z,3.17
2019-02-25T13:11:59.735Z,3.70
2019-02-25T13:14:28.903Z,3.67
2019-02-25T13:16:58.236Z,3.93
2019-02-25T13:19:27.399Z,3.80
2019-02-25T13:21:56.648Z,4.17
2019-02-25T13:24:25.963Z,3.80
2019-02-25T13:26:55.227Z,4.07
2019-02-25T13:29:24.564Z,3.73
2019-02-25T13:31:53.904Z,4.20
2019-02-25T13:34:23.140Z,3.80
2019-02-25T13:36:52.496Z,3.67
2019-02-25T13:39:21.931Z,3.83
2019-02-25T13:41:51.162Z,3.90
2019-02-25T13:44:20.429Z,4.03
2019-02-25T13:46:49.733Z,4.03
2019-02-25T13:49:19.058Z,3.90
2019-02-25T13:51:48.369Z,4.07
2019-02-25T13:54:17.706Z,4.10
2019-02-25T13:56:47.015Z,4.00
2019-02-25T13:59:16.339Z,4.20
2019-02-25T14:01:45.597Z,3.77
2019-02-25T14:04:14.959Z,4.30
2019-02-25T14:06:44.268Z,3.90
2019-02-25T14:09:14.008Z,4.23
2019-02-25T14:11:43.248Z,4.60
2019-02-25T14:14:12.744Z,4.27
2019-02-25T14:16:41.975Z,4.43
2019-02-25T14:19:11.244Z,4.00
2019-02-25T14:21:40.520Z,4.10
2019-02-25T14:24:09.860Z,4.17
2019-02-25T14:26:39.168Z,4.57
2019-02-25T14:29:08.707Z,3.90
2019-02-25T14:31:37.948Z,4.17
2019-02-25T14:34:07.212Z,3.93
2019-02-25T14:36:36.601Z,4.30
2019-02-25T14:39:40.656Z,4.63
2019-02-25T14:42:11.919Z,4.20
2019-02-25T14:44:41.351Z,4.13
2019-02-25T14:47:20.609Z,3.83
2019-02-25T14:49:42.919Z,4.50
2019-02-25T14:52:12.531Z,4.80
2019-02-25T14:54:41.782Z,5.07
2019-02-25T14:57:11.024Z,5.37
2019-02-25T14:59:40.356Z,5.07
2019-02-25T15:02:11.113Z,5.03
2019-02-25T15:04:41.855Z,4.40
2019-02-25T15:07:13.489Z,4.57
2019-02-25T15:09:43.546Z,4.40
2019-02-25T15:12:13.840Z,4.10
2019-02-25T15:14:43.129Z,4.10
2019-02-25T15:17:13.133Z,4.17
2019-02-25T15:19:43.432Z,4.47
2019-02-25T15:22:12.757Z,4.20
2019-02-25T15:24:43.976Z,4.30
2019-02-25T15:27:13.291Z,3.70
2019-02-25T15:29:44.711Z,4.00
2019-02-25T15:32:13.933Z,3.67
2019-02-25T15:34:43.277Z,3.73
2019-02-25T15:37:14.011Z,3.73
2019-02-25T15:39:43.438Z,3.70
2019-02-25T15:42:12.799Z,3.90
2019-02-25T15:44:42.350Z,3.80
2019-02-25T15:47:14.742Z,4.00
2019-02-25T15:49:44.016Z,3.90
2019-02-25T15:52:16.604Z,4.27
2019-02-25T15:54:44.256Z,3.57
2019-02-25T15:57:13.520Z,3.60
2019-02-25T15:59:42.759Z,3.70
2019-02-25T16:02:14.135Z,4.40
2019-02-25T16:04:43.088Z,4.03
2019-02-25T16:07:12.431Z,4.37
2019-02-25T16:09:41.952Z,4.70
2019-02-25T16:12:11.291Z,5.03
2019-02-25T16:14:42.246Z,4.33
2019-02-25T16:17:12.259Z,4.23
2019-02-25T16:19:47.337Z,4.03
2019-02-25T16:22:12.497Z,4.50
2019-02-25T16:24:43.594Z,4.20
2019-02-25T16:27:12.828Z,4.53
2019-02-25T16:29:42.067Z,3.97
2019-02-25T16:32:11.462Z,3.40
2019-02-25T16:34:42.570Z,3.73
2019-02-25T16:37:12.210Z,4.03
2019-02-25T16:39:41.511Z,3.43
2019-02-25T16:42:10.875Z,3.43
2019-02-25T16:44:40.229Z,3.40
2019-02-25T16:47:09.760Z,3.47
2019-02-25T16:49:40.570Z,3.50
2019-02-25T16:52:09.948Z,3.50
2019-02-25T16:54:39.244Z,3.40
2019-02-25T16:57:08.660Z,2.47
2019-02-25T16:59:38.031Z,3.00
2019-02-25T17:02:09.667Z,3.80
2019-02-25T17:04:38.379Z,6.00
2019-02-25T17:07:07.688Z,3.70
2019-02-25T17:09:38.686Z,2.83
2019-02-25T17:12:08.882Z,2.80
2019-02-25T17:14:40.462Z,2.53
2019-02-25T17:17:09.228Z,4.13
2019-02-25T17:19:38.652Z,3.53
2019-02-25T17:22:08.024Z,3.53
2019-02-25T17:24:38.788Z,3.27
2019-02-25T17:27:09.273Z,8.27
2019-02-25T17:29:39.351Z,3.40
2019-02-25T17:32:09.371Z,3.30
2019-02-25T17:34:39.350Z,2.83
2019-02-25T17:37:10.438Z,2.60
2019-02-25T17:39:40.827Z,2.83
2019-02-25T17:42:10.247Z,2.67
2019-02-25T17:44:39.844Z,2.23
2019-02-25T17:47:10.938Z,3.20
2019-02-25T17:49:40.585Z,2.70
2019-02-25T17:52:12.276Z,4.10
2019-02-25T17:54:42.027Z,3.80
2019-02-25T17:57:11.998Z,4.07
2019-02-25T17:59:43.998Z,3.20
2019-02-25T18:02:13.252Z,3.10
2019-02-25T18:04:42.466Z,3.50
2019-02-25T18:07:11.722Z,7.63
2019-02-25T18:09:42.669Z,12.23
2019-02-25T18:12:12.215Z,8.53
2019-02-25T18:14:43.081Z,5.70
2019-02-25T18:17:14.827Z,4.30
2019-02-25T18:19:45.480Z,3.47
2019-02-25T18:22:16.701Z,2.77
2019-02-25T18:24:45.247Z,3.13
2019-02-25T18:27:15.292Z,4.57
2019-02-25T18:29:46.243Z,3.07
2019-02-25T18:32:15.423Z,2.93
2019-02-25T18:34:45.023Z,3.73
2019-02-25T18:37:15.600Z,2.93
2019-02-25T18:39:45.727Z,2.80
2019-02-25T18:42:17.963Z,2.93
2019-02-25T18:44:49.025Z,3.10
2019-02-25T18:47:18.536Z,3.00
2019-02-25T18:49:49.929Z,3.00
2019-02-25T18:52:19.974Z,4.90
2019-02-25T18:54:49.275Z,4.60
2019-02-25T18:57:19.249Z,3.83
2019-02-25T18:59:49.562Z,6.37
2019-02-25T19:02:20.122Z,2.90
2019-02-25T19:04:49.368Z,2.97
2019-02-25T19:07:18.899Z,3.07
2019-02-25T19:09:49.372Z,3.40
2019-02-25T19:12:19.483Z,3.43
2019-02-25T19:14:51.098Z,3.30
2019-02-25T19:17:20.956Z,3.23
2019-02-25T19:19:51.652Z,3.37
2019-02-25T19:22:22.007Z,2.97
2019-02-25T19:24:51.341Z,3.30
2019-02-25T19:27:20.560Z,3.67
2019-02-25T19:29:51.544Z,3.30
2019-02-25T19:32:20.978Z,2.80
2019-02-25T19:34:53.712Z,2.97
2019-02-25T19:37:22.795Z,3.70
2019-02-25T19:39:52.190Z,5.17
2019-02-25T19:42:22.875Z,3.23
2019-02-25T19:44:52.461Z,3.30
2019-02-25T19:47:21.760Z,2.90
2019-02-25T19:49:51.136Z,2.90
2019-02-25T19:52:20.536Z,2.97
2019-02-25T19:54:50.698Z,2.80
2019-02-25T19:57:21.643Z,3.00
2019-02-25T19:59:52.872Z,4.23
2019-02-25T20:02:22.618Z,3.20
2019-02-25T20:04:52.991Z,3.17
2019-02-25T20:07:25.861Z,3.40
2019-02-25T20:09:55.322Z,3.60
2019-02-25T20:12:24.231Z,4.00
2019-02-25T20:14:53.608Z,3.27
2019-02-25T20:17:26.032Z,3.53
2019-02-25T20:19:54.015Z,5.63
2019-02-25T20:22:23.192Z,3.30
2019-02-25T20:24:53.324Z,3.60
2019-02-25T20:27:23.412Z,3.07
2019-02-25T20:29:52.800Z,4.23
2019-02-25T20:32:22.122Z,3.40
2019-02-25T20:34:52.766Z,3.00
2019-02-25T20:37:22.995Z,4.40
2019-02-25T20:39:53.381Z,15.00
2019-02-25T20:42:24.418Z,7.60
2019-02-25T20:44:55.266Z,4.20
2019-02-25T20:47:24.599Z,4.80
2019-02-25T20:49:55.706Z,3.27
2019-02-25T20:52:24.808Z,4.07
2019-02-25T20:54:54.031Z,3.20
2019-02-25T20:57:23.420Z,3.50
2019-02-25T20:59:53.258Z,3.10
2019-02-25T21:02:25.274Z,3.00
2019-02-25T21:04:54.614Z,3.43
2019-02-25T21:07:25.052Z,3.30
2019-02-25T21:09:56.306Z,2.67
2019-02-25T21:12:25.759Z,3.53
2019-02-25T21:14:55.093Z,3.00
2019-02-25T21:17:24.342Z,3.10
2019-02-25T21:19:53.571Z,2.37
2019-02-25T21:22:23.381Z,3.03
2019-02-25T21:24:55.759Z,2.90
2019-02-25T21:27:28.341Z,3.10
2019-02-25T21:29:56.910Z,2.87
2019-02-25T21:32:28.259Z,2.77
2019-02-25T21:34:58.054Z,3.33
2019-02-25T21:37:29.326Z,2.70
2019-02-25T21:40:00.355Z,3.30
2019-02-25T21:42:29.748Z,3.07
2019-02-25T21:45:00.108Z,3.80
2019-02-25T21:47:30.922Z,3.00
2019-02-25T21:50:01.288Z,3.37
2019-02-25T21:52:32.791Z,3.00
2019-02-25T21:55:04.797Z,2.70
2019-02-25T21:57:35.435Z,3.10
2019-02-25T22:00:06.188Z,2.77
2019-02-25T22:02:37.407Z,3.17
2019-02-25T22:05:09.839Z,3.30
2019-02-25T22:07:37.801Z,2.63
2019-02-25T22:10:08.304Z,3.57
2019-02-25T22:12:38.368Z,2.57
2019-02-25T22:15:10.867Z,3.10
2019-02-25T22:17:41.302Z,2.50
2019-02-25T22:20:14.386Z,3.03
2019-02-25T22:22:43.359Z,2.27
2019-02-25T22:25:14.106Z,3.23
2019-02-25T22:27:45.597Z,3.30
2019-02-25T22:30:15.852Z,2.60
2019-02-25T22:32:44.994Z,2.90
2019-02-25T22:35:15.126Z,3.10
2019-02-25T22:37:47.355Z,2.60
2019-02-25T22:40:17.168Z,2.70
2019-02-25T22:42:47.903Z,2.40
2019-02-25T22:45:18.800Z,2.90
2019-02-25T22:47:48.325Z,2.60
2019-02-25T22:50:17.579Z,2.67
2019-02-25T22:52:46.734Z,3.03
2019-02-25T22:55:17.989Z,3.13
2019-02-25T22:57:50.915Z,2.30
2019-02-25T23:00:42.537Z,3.30
2019-02-25T23:03:15.272Z,2.53
2019-02-25T23:05:45.421Z,3.17
2019-02-25T23:08:15.505Z,3.00
2019-02-25T23:10:47.003Z,3.23
2019-02-25T23:13:17.782Z,2.60
2019-02-25T23:15:48.981Z,2.43
2019-02-25T23:18:21.550Z,3.03
2019-02-25T23:20:50.400Z,2.97
2019-02-25T23:23:21.362Z,2.70
2019-02-25T23:25:51.404Z,2.70
2019-02-25T23:28:22.801Z,2.50
2019-02-25T23:30:53.259Z,3.00
2019-02-25T23:33:24.604Z,2.57
2019-02-25T23:35:55.956Z,2.90
2019-02-25T23:38:24.999Z,2.90
2019-02-25T23:40:54.237Z,2.60
2019-02-25T23:43:23.496Z,3.23
2019-02-25T23:45:52.671Z,2.50
2019-02-25T23:48:21.956Z,2.73
2019-02-25T23:50:53.296Z,2.57
2019-02-25T23:53:23.569Z,2.90
2019-02-25T23:55:54.421Z,2.97
2019-02-25T23:58:24.228Z,3.23
